Details From RJOH - MIHO
To RJOO - OSAKA INTL
Flight Number -
Tags decoded
Created
Modified
Stats Distance 125 nm / 231 km
Max Altitude 0 ft / 0 m
Waypoints 5
Social Downloads 0
Likes 0
Share VATSIM

Download

Looking for another format? Having issues loading an existing format? Contact us
Advertisement - Login to hide

Notes

Requested: RJOH RAKDA Y188 TOZAN Y38 ROKKO V55 SANDA RJOO Unmatched points: RAKDA Y188

Route

RJOH TOZAN ROKKO V55 SANDA RJOO

ID Type Via Altitude Latitude Longitude Leg Dist Tot Dist Heading (true) Name
O RJOH APT - 0 ft / 0 m 35.49147˚ 133.23572˚ - 0 nm - MIHO
TOZAN FIX - 0 ft / 0 m 35.27197˚ 134.48483˚ 62 nm 62 nm 102° / 103° -
ROKKO FIX - 0 ft / 0 m 35.11681˚ 135.30023˚ 41 nm 103 nm 103° / 103° -
SANDA FIX V55 (AWY-LO) 0 ft / 0 m 34.93295˚ 135.38248˚ 11 nm 115 nm 160° / 160° -
O RJOO APT - 0 ft / 0 m 34.78560˚ 135.43802˚ 9 nm 124 nm 163° / 163° OSAKA INTL

Altitude Profile

Advertisement - Login to hide

RJOH

Details ICAO RJOH (YGJ)
Name MIHO
Region Japan
Timezone Asia/Tokyo (UTC+9.0)
Stats Elevation 20 ft / 6 m (AMSL)
Location 35.491467° 133.235719°
Runways 1
Magnetic Variation 8.055° W

METAR

RJOH 250200Z 27004KT 9999 FEW030 SCT250 30/15 Q1012

Decode

TAF

TAF RJOH 242310Z 2500/2606 20004KT 9999 FEW035 BECMG 2502/2504 06010KT BECMG 2515/2518 18005KT BECMG 2600/2603 05009KT

Decode

Departure Runways

ID Width Length Bearing (true) Bearing (mag) Surface Threshold Offset Overrun Length
07 148 ft / 45 m 6,558 ft / 1,999 m 63.80° 71.85° Asphalt 0 ft / 0 m 200 ft / 61 m
25 148 ft / 45 m 6,558 ft / 1,999 m 243.81° 251.86° Asphalt 0 ft / 0 m 200 ft / 61 m

RJOO

Details ICAO RJOO (ITM)
Name OSAKA INTL
Region Japan
Timezone Asia/Tokyo (UTC+9.0)
Stats Elevation 50 ft / 15 m (AMSL)
Location 34.785603° 135.438019°
Runways 2
Magnetic Variation 7.714° W

METAR

RJOO 250200Z 22005KT 180V270 9999 FEW030 29/17 Q1012 RMK 1CU030 A2991

Decode

TAF

TAF RJOO 242307Z 2500/2606 22007KT 9999 FEW025 BECMG 2509/2511 32004KT BECMG 2521/2600 22008KT

Decode

Destination Runways

ID Width Length Bearing (true) Bearing (mag) Surface Threshold Offset Overrun Length
14L 150 ft / 46 m 5,999 ft / 1,829 m 135.13° 142.84° Asphalt 0 ft / 0 m 678 ft / 207 m
14R 200 ft / 61 m 9,846 ft / 3,001 m 135.13° 142.84° Concrete 0 ft / 0 m 240 ft / 73 m
32L 200 ft / 61 m 9,846 ft / 3,001 m 315.15° 322.86° Concrete 0 ft / 0 m 249 ft / 76 m
32R 150 ft / 46 m 5,999 ft / 1,829 m 315.14° 322.85° Asphalt 0 ft / 0 m 571 ft / 174 m

Approach Navaids

Runway Type Ident Frequency Range Bearing (true) Bearing (mag) Slope Elevation
32L Localiser ISK 110.10 MHz 18 nm / 33 km 315.13° 322.85° - 50 ft / 15 m (AMSL)
32L Glidescope ISK 110.10 MHz 10 nm / 19 km 315.14° 322.85° 3.00° 54 ft / 16 m (AMSL)

Popular Alternatives